Time;durP1;ratioP1;P1;durP2;ratioP2;P2;SDS_P1;SDS_P2;PMS_P1;PMS_P2;Temp;Humidity;BMP_temperature;BMP_pressure;BME280_temperature;BME280_humidity;BME280_pressure;Samples;Min_cycle;Max_cycle;Signal;HPM_P1;HPM_P2
2022/03/14 00:01:48;;;;;;;0.77;0.65;;;;;;;;;;4975218;28;21357;-52
2022/03/14 00:04:15;;;;;;;0.77;0.60;;;;;;;;;;4985865;28;20030;-48
2022/03/14 00:06:42;;;;;;;0.43;0.43;;;;;;;;;;4985990;28;20425;-47
2022/03/14 00:09:10;;;;;;;0.50;0.50;;;;;;;;;;4968529;28;20045;-49
2022/03/14 00:11:37;;;;;;;0.73;0.60;;;;;;;;;;4985488;28;20459;-49
2022/03/14 00:14:06;;;;;;;0.88;0.65;;;;;;;;;;4984618;28;20062;-50
2022/03/14 00:16:37;;;;;;;0.50;0.50;;;;;;;;;;4984541;28;20632;-50
2022/03/14 00:19:05;;;;;;;0.52;0.45;;;;;;;;;;4985558;28;20022;-51
2022/03/14 00:21:35;;;;;;;0.47;0.47;;;7.60;99.90;;;;;;4968273;28;20026;-48
2022/03/14 00:24:02;;;;;;;0.85;0.50;;;7.50;99.90;;;;;;4966022;28;20406;-50
2022/03/14 00:26:28;;;;;;;0.50;0.50;;;7.70;99.90;;;;;;4965979;28;20106;-49
2022/03/14 00:28:54;;;;;;;0.40;0.40;;;7.70;99.90;;;;;;4965876;28;20031;-51
2022/03/14 00:31:21;;;;;;;0.88;0.60;;;7.50;99.90;;;;;;4963948;28;20030;-52
2022/03/14 00:33:49;;;;;;;1.17;0.70;;;7.60;99.90;;;;;;4974714;28;20034;-50
2022/03/14 00:36:14;;;;;;;0.70;0.70;;;7.50;99.90;;;;;;4967469;28;20118;-50
2022/03/14 00:38:41;;;;;;;0.88;0.63;;;7.70;99.90;;;;;;4943140;28;20118;-51
2022/03/14 00:41:08;;;;;;;0.57;0.57;;;7.60;99.90;;;;;;4969504;28;20310;-52
2022/03/14 00:43:35;;;;;;;0.65;0.60;;;7.60;99.90;;;;;;4985059;28;20042;-50
2022/03/14 00:46:01;;;;;;;0.68;0.60;;;7.70;99.90;;;;;;4985066;28;20026;-50
2022/03/14 00:48:27;;;;;;;0.75;0.70;;;7.60;99.90;;;;;;4984650;28;20092;-50
2022/03/14 00:50:54;;;;;;;0.60;0.60;;;7.60;99.90;;;;;;4984325;28;20477;-50
2022/03/14 00:53:21;;;;;;;1.00;0.65;;;7.80;99.90;;;;;;4985014;28;20320;-51
2022/03/14 00:55:46;;;;;;;0.55;0.55;;;8.00;99.90;;;;;;4984988;28;20030;-51
2022/03/14 00:58:12;;;;;;;0.98;0.50;;;8.10;99.90;;;;;;4983850;28;20037;-50
2022/03/14 01:00:38;;;;;;;0.55;0.55;;;8.00;99.90;;;;;;4983679;28;20457;-49
2022/03/14 01:03:04;;;;;;;0.60;0.55;;;7.90;99.90;;;;;;4993588;28;20088;-50
2022/03/14 01:05:31;;;;;;;0.68;0.60;;;7.90;99.90;;;;;;4983992;28;20022;-52
2022/03/14 01:07:58;;;;;;;1.10;0.70;;;8.00;99.90;;;;;;4984687;28;20109;-49
2022/03/14 01:10:23;;;;;;;0.70;0.70;;;7.90;99.90;;;;;;4984372;28;20598;-52
2022/03/14 01:12:50;;;;;;;0.68;0.68;;;8.00;99.90;;;;;;4984834;28;20109;-50
2022/03/14 01:15:15;;;;;;;0.70;0.70;;;8.00;99.90;;;;;;4976211;28;20026;-48
2022/03/14 01:17:42;;;;;;;0.73;0.73;;;8.00;99.90;;;;;;4985057;28;20077;-52
2022/03/14 01:20:10;;;;;;;0.70;0.63;;;7.90;99.90;;;;;;4982929;28;20437;-51
2022/03/14 01:22:36;;;;;;;0.65;0.63;;;7.80;99.90;;;;;;4984521;28;20041;-48
2022/03/14 01:25:03;;;;;;;1.17;0.70;;;7.80;99.90;;;;;;4967347;28;20118;-49
2022/03/14 01:27:30;;;;;;;0.57;0.57;;;7.70;99.90;;;;;;4983991;28;20077;-51
2022/03/14 01:29:56;;;;;;;0.50;0.50;;;7.60;99.90;;;;;;4984379;28;20026;-49
2022/03/14 01:32:22;;;;;;;0.70;0.60;;;7.70;99.90;;;;;;4983364;28;20041;-50
2022/03/14 01:34:48;;;;;;;0.70;0.70;;;7.80;99.90;;;;;;4967160;28;20081;-48
2022/03/14 01:37:16;;;;;;;0.80;0.70;;;7.70;99.90;;;;;;4985094;28;20034;-51
2022/03/14 01:39:41;;;;;;;0.52;0.52;;;7.60;99.90;;;;;;4985381;28;20022;-50
2022/03/14 01:42:07;;;;;;;0.40;0.40;;;7.70;99.90;;;;;;4981940;28;20549;-51
2022/03/14 01:44:33;;;;;;;0.80;0.80;;;7.60;99.90;;;;;;4984385;28;20108;-47
2022/03/14 01:47:00;;;;;;;0.82;0.80;;;7.70;99.90;;;;;;4965918;28;20042;-48
2022/03/14 01:49:27;;;;;;;0.63;0.60;;;7.40;99.90;;;;;;4983257;28;20107;-51
2022/03/14 01:51:55;;;;;;;1.27;0.90;;;7.40;99.90;;;;;;4984478;28;20018;-48
2022/03/14 01:54:21;;;;;;;0.75;0.70;;;7.40;99.90;;;;;;4981083;28;20022;-51
2022/03/14 01:56:47;;;;;;;0.57;0.52;;;7.30;99.90;;;;;;4984784;28;20147;-50
2022/03/14 01:59:13;;;;;;;1.70;0.90;;;7.30;99.90;;;;;;4986045;28;20064;-50
2022/03/14 02:01:39;;;;;;;1.08;0.90;;;7.40;99.90;;;;;;4986257;28;20462;-48
2022/03/14 02:04:08;;;;;;;0.68;0.68;;;7.50;99.90;;;;;;4986426;28;20037;-50
2022/03/14 02:06:35;;;;;;;0.70;0.60;;;7.40;99.90;;;;;;4986330;28;20113;-51
2022/03/14 02:09:02;;;;;;;0.70;0.70;;;7.40;99.90;;;;;;4976037;28;20082;-49
2022/03/14 02:11:28;;;;;;;0.65;0.60;;;7.50;99.90;;;;;;4966377;28;20093;-50
2022/03/14 02:13:54;;;;;;;1.05;0.70;;;7.40;99.90;;;;;;4966599;28;20031;-51
2022/03/14 02:16:19;;;;;;;1.67;1.00;;;7.40;99.90;;;;;;4966645;28;20027;-50
2022/03/14 02:18:45;;;;;;;0.80;0.80;;;7.40;99.90;;;;;;4974928;28;20039;-51
2022/03/14 02:21:13;;;;;;;0.93;0.90;;;7.30;99.90;;;;;;4985914;28;20055;-51
2022/03/14 02:23:39;;;;;;;1.05;0.90;;;7.30;99.90;;;;;;4989914;28;20034;-51
2022/03/14 02:26:05;;;;;;;1.25;0.93;;;7.40;99.90;;;;;;4989832;28;20114;-52
2022/03/14 02:28:31;;;;;;;1.00;0.90;;;7.40;99.90;;;;;;4988340;28;20038;-49
2022/03/14 02:30:57;;;;;;;0.80;0.80;;;7.40;99.90;;;;;;4989615;28;20113;-51
2022/03/14 02:33:23;;;;;;;1.25;0.85;;;7.40;99.90;;;;;;4989571;28;20098;-51
2022/03/14 02:35:49;;;;;;;1.17;0.77;;;7.40;99.90;;;;;;4989485;28;20018;-48
2022/03/14 02:38:17;;;;;;;1.30;1.10;;;7.30;99.90;;;;;;4989247;28;20105;-51
2022/03/14 02:40:48;;;;;;;0.80;0.80;;;7.40;99.90;;;;;;4990163;28;20024;-49
2022/03/14 02:43:15;;;;;;;0.80;0.80;;;7.40;99.90;;;;;;4989372;28;20115;-51
2022/03/14 02:45:43;;;;;;;1.15;1.05;;;7.30;99.90;;;;;;4989738;28;20030;-51
2022/03/14 02:48:10;;;;;;;1.10;0.95;;;7.40;99.90;;;;;;4986709;28;20432;-51
2022/03/14 02:50:42;;;;;;;1.10;1.00;;;7.30;99.90;;;;;;4969378;28;20138;-50
2022/03/14 02:53:12;;;;;;;1.13;1.02;;;7.30;99.90;;;;;;4969600;28;20038;-49
2022/03/14 02:55:38;;;;;;;1.40;1.27;;;7.30;99.90;;;;;;4969852;28;20021;-51
2022/03/14 02:58:05;;;;;;;1.33;1.08;;;7.20;99.90;;;;;;4982930;28;20050;-50
2022/03/14 03:00:30;;;;;;;1.30;1.20;;;7.10;99.90;;;;;;4988647;28;20584;-50
2022/03/14 03:02:56;;;;;;;1.30;1.20;;;7.00;99.90;;;;;;4989018;28;20145;-50
2022/03/14 03:05:22;;;;;;;1.42;1.02;;;7.30;99.90;;;;;;4987848;28;20030;-50
2022/03/14 03:07:48;;;;;;;1.13;1.02;;;7.40;99.90;;;;;;4987972;28;20053;-51
2022/03/14 03:10:23;;;;;;;1.42;1.08;;;7.50;99.90;;;;;;4987346;28;20113;-50
2022/03/14 03:12:49;;;;;;;1.65;1.45;;;7.60;99.90;;;;;;4987243;28;20027;-50
2022/03/14 03:15:15;;;;;;;1.20;1.10;;;7.40;99.90;;;;;;4989007;28;20030;-51
2022/03/14 03:17:43;;;;;;;1.55;1.35;;;7.50;99.90;;;;;;4989653;28;20482;-50
2022/03/14 03:20:11;;;;;;;1.48;1.23;;;7.60;99.90;;;;;;4987632;28;20030;-51
2022/03/14 03:22:38;;;;;;;1.00;1.00;;;7.40;99.90;;;;;;4988597;28;20096;-51
2022/03/14 03:25:08;;;;;;;1.85;1.30;;;7.40;99.90;;;;;;4987786;28;20133;-51
2022/03/14 03:27:34;;;;;;;1.60;1.20;;;7.20;99.90;;;;;;4988234;28;20030;-52
2022/03/14 03:30:00;;;;;;;1.45;1.30;;;7.20;99.90;;;;;;4988429;28;20121;-50
2022/03/14 03:32:26;;;;;;;1.38;1.17;;;7.20;99.90;;;;;;4988438;28;20105;-52
2022/03/14 03:34:52;;;;;;;1.58;1.42;;;7.30;99.90;;;;;;4987505;28;20028;-48
2022/03/14 03:37:18;;;;;;;1.63;1.30;;;7.20;99.90;;;;;;4988181;28;20026;-52
2022/03/14 03:39:44;;;;;;;2.25;1.42;;;7.20;99.90;;;;;;4971638;28;20529;-51
2022/03/14 03:42:11;;;;;;;1.13;1.02;;;7.20;99.90;;;;;;4988219;28;20030;-51
2022/03/14 03:44:36;;;;;;;1.30;1.20;;;7.10;99.90;;;;;;4987323;28;20154;-48
2022/03/14 03:47:03;;;;;;;1.45;1.30;;;7.10;99.90;;;;;;4987813;28;20514;-48
2022/03/14 03:49:29;;;;;;;1.50;1.40;;;7.20;99.90;;;;;;4988079;28;20104;-50
2022/03/14 03:51:55;;;;;;;1.40;1.25;;;7.20;99.90;;;;;;4970592;28;20524;-51
2022/03/14 03:54:21;;;;;;;1.08;0.98;;;7.20;99.90;;;;;;4969349;28;20019;-51
2022/03/14 03:56:47;;;;;;;1.20;1.10;;;7.10;99.90;;;;;;4987972;28;20110;-48
2022/03/14 03:59:13;;;;;;;1.50;1.08;;;7.10;99.90;;;;;;4987935;28;20046;-52
2022/03/14 04:01:39;;;;;;;1.27;1.17;;;7.10;99.90;;;;;;4987668;28;20085;-48
2022/03/14 04:04:05;;;;;;;2.75;1.30;;;7.10;99.90;;;;;;4982965;28;20030;-49
2022/03/14 04:06:30;;;;;;;2.28;1.40;;;7.10;99.90;;;;;;4987427;28;20512;-50
2022/03/14 04:08:59;;;;;;;1.42;1.33;;;7.00;99.90;;;;;;4986987;28;20030;-51
2022/03/14 04:11:25;;;;;;;1.20;1.10;;;7.00;99.90;;;;;;4987467;28;20050;-50
2022/03/14 04:13:58;;;;;;;1.40;1.30;;;7.00;99.90;;;;;;4987659;28;20030;-51
2022/03/14 04:16:26;;;;;;;1.55;1.38;;;7.10;99.90;;;;;;4986987;28;20019;-52
2022/03/14 04:18:53;;;;;;;1.13;1.02;;;7.00;99.90;;;;;;4969351;28;20027;-50
2022/03/14 04:21:19;;;;;;;1.20;1.00;;;7.00;99.90;;;;;;4987449;28;20038;-51
2022/03/14 04:23:45;;;;;;;1.33;1.23;;;6.90;99.90;;;;;;4988358;28;20022;-50
2022/03/14 04:26:11;;;;;;;1.67;1.00;;;6.90;99.90;;;;;;4970310;28;20084;-50
2022/03/14 04:28:39;;;;;;;1.60;1.35;;;6.90;99.90;;;;;;4986233;28;20034;-51
2022/03/14 04:31:09;;;;;;;1.23;1.13;;;6.90;99.90;;;;;;4987445;28;20482;-51
2022/03/14 04:33:36;;;;;;;0.90;0.80;;;6.90;99.90;;;;;;4987201;28;20470;-50
2022/03/14 04:36:02;;;;;;;1.20;1.10;;;6.90;99.90;;;;;;4981886;28;20109;-48
2022/03/14 04:38:29;;;;;;;1.25;1.15;;;6.80;99.90;;;;;;4978600;28;20513;-50
2022/03/14 04:40:55;;;;;;;1.17;0.90;;;6.80;99.90;;;;;;4987109;28;20498;-50
2022/03/14 04:43:21;;;;;;;0.90;0.80;;;6.80;99.90;;;;;;4987407;28;20041;-51
2022/03/14 04:45:48;;;;;;;0.90;0.90;;;6.80;99.90;;;;;;4986836;28;20052;-49
2022/03/14 04:48:15;;;;;;;1.20;1.10;;;6.80;99.90;;;;;;4986410;28;20745;-51
2022/03/14 04:50:42;;;;;;;1.08;0.98;;;6.70;99.90;;;;;;4987314;28;20129;-50
2022/03/14 04:53:09;;;;;;;1.15;0.95;;;6.70;99.90;;;;;;4987234;28;20015;-52
2022/03/14 04:55:36;;;;;;;1.05;0.82;;;6.70;99.90;;;;;;4987203;28;20027;-52
2022/03/14 04:58:06;;;;;;;0.90;0.70;;;6.70;99.90;;;;;;4979560;28;20030;-50
2022/03/14 05:00:32;;;;;;;1.05;0.98;;;6.60;99.90;;;;;;4967505;28;20034;-50
2022/03/14 05:03:05;;;;;;;1.00;0.90;;;6.70;99.90;;;;;;4975304;28;20605;-50
2022/03/14 05:05:31;;;;;;;0.60;0.60;;;6.70;99.90;;;;;;4987113;28;20084;-49
2022/03/14 05:07:57;;;;;;;0.80;0.70;;;6.80;99.90;;;;;;4987073;28;20316;-51
2022/03/14 05:10:23;;;;;;;0.90;0.80;;;6.80;99.90;;;;;;4986954;28;20027;-52
2022/03/14 05:12:49;;;;;;;1.27;0.73;;;6.80;99.90;;;;;;4986384;28;20030;-49
2022/03/14 05:15:19;;;;;;;0.70;0.70;;;6.80;99.90;;;;;;4985902;28;20073;-51
2022/03/14 05:17:46;;;;;;;0.70;0.70;;;6.80;99.90;;;;;;4987307;28;20481;-51
2022/03/14 05:20:12;;;;;;;0.63;0.63;;;6.90;99.90;;;;;;4987429;28;20033;-48
2022/03/14 05:22:48;;;;;;;0.60;0.60;;;6.90;99.90;;;;;;4986214;28;20058;-51
2022/03/14 05:25:18;;;;;;;0.70;0.60;;;6.80;99.90;;;;;;4987310;28;20434;-49
2022/03/14 05:27:45;;;;;;;0.77;0.77;;;6.70;99.90;;;;;;4986245;28;20026;-47
2022/03/14 05:30:10;;;;;;;0.65;0.60;;;6.70;99.90;;;;;;4986029;28;20049;-50
2022/03/14 05:32:37;;;;;;;0.98;0.88;;;6.80;99.90;;;;;;4985929;28;20026;-48
2022/03/14 05:35:06;;;;;;;0.80;0.80;;;6.70;99.90;;;;;;4985483;28;20035;-50
2022/03/14 05:37:32;;;;;;;0.80;0.77;;;6.70;99.90;;;;;;4985559;28;20113;-49
2022/03/14 05:39:58;;;;;;;1.05;0.95;;;;;;;;;;4985960;28;20122;-50
2022/03/14 05:42:25;;;;;;;1.02;0.85;;;;;;;;;;4986041;28;20034;-50
2022/03/14 05:44:51;;;;;;;1.55;1.10;;;;;;;;;;4986216;28;20046;-48
2022/03/14 05:47:19;;;;;;;1.17;1.00;;;;;;;;;;4985470;28;20044;-49
2022/03/14 05:49:45;;;;;;;1.23;0.88;;;;;;;;;;4986826;28;20026;-50
2022/03/14 05:52:13;;;;;;;0.75;0.70;;;;;;;;;;4978165;28;20546;-48
2022/03/14 05:54:39;;;;;;;1.05;0.85;;;;;;;;;;4966983;28;20058;-50
2022/03/14 05:57:05;;;;;;;0.60;0.60;;;;;;;;;;4978052;28;20033;-50
2022/03/14 05:59:32;;;;;;;1.25;0.50;;;;;;;;;;4990095;28;20034;-50
2022/03/14 06:01:58;;;;;;;0.50;0.50;;;;;;;;;;4990432;28;20026;-52
2022/03/14 06:04:24;;;;;;;0.40;0.40;;;;;;;;;;4988967;28;20034;-49
2022/03/14 06:06:51;;;;;;;0.43;0.40;;;;;;;;;;4990178;28;20023;-49
2022/03/14 06:09:17;;;;;;;0.47;0.47;;;;;;;;;;4989804;28;20825;-51
2022/03/14 06:11:43;;;;;;;0.85;0.73;;;;;;;;;;4990937;28;20030;-52
2022/03/14 06:14:11;;;;;;;0.60;0.60;;;;;;;;;;4988166;28;20080;-49
2022/03/14 06:16:38;;;;;;;0.55;0.55;;;;;;;;;;4989919;28;20489;-49
2022/03/14 06:19:04;;;;;;;0.68;0.68;;;;;;;;;;4989823;28;20022;-52
2022/03/14 06:21:30;;;;;;;0.70;0.70;;;;;;;;;;4989729;28;20030;-48
2022/03/14 06:23:56;;;;;;;0.80;0.80;;;;;;;;;;4989087;28;20038;-51
2022/03/14 06:26:22;;;;;;;1.20;0.73;;;;;;;;;;4989759;28;20533;-48
2022/03/14 06:28:48;;;;;;;0.55;0.55;;;;;;;;;;4989678;28;20529;-52
2022/03/14 06:31:16;;;;;;;0.70;0.70;;;;;;;;;;4989742;28;20037;-52
2022/03/14 06:33:42;;;;;;;1.25;0.90;;;;;;;;;;4989408;28;20512;-50
2022/03/14 06:36:08;;;;;;;1.15;0.80;;;;;;;;;;4969329;28;20026;-50
2022/03/14 06:38:35;;;;;;;0.85;0.80;;;;;;;;;;4968365;28;20078;-51
2022/03/14 06:41:02;;;;;;;1.30;0.80;;;;;;;;;;4978379;28;20049;-50
2022/03/14 06:43:29;;;;;;;1.02;0.80;;;;;;;;;;4988579;28;20038;-51
2022/03/14 06:45:55;;;;;;;1.75;1.23;;;;;;;;;;4988016;28;20536;-50
2022/03/14 06:48:21;;;;;;;1.05;0.95;;;;;;;;;;4988429;28;20038;-50
2022/03/14 06:50:48;;;;;;;0.98;0.88;;;;;;;;;;4988626;28;20084;-51
2022/03/14 06:53:15;;;;;;;1.42;1.00;;;;;;;;;;4989185;28;20026;-52
2022/03/14 06:55:41;;;;;;;1.33;0.75;;;;;;;;;;4987876;28;20030;-49
2022/03/14 06:58:07;;;;;;;1.00;0.80;;;;;;;;;;4988172;28;20389;-51
2022/03/14 07:00:34;;;;;;;0.88;0.65;;;;;;;;;;4988889;28;20049;-50
2022/03/14 07:03:00;;;;;;;1.00;0.90;;;;;;;;;;4989355;28;20023;-50
2022/03/14 07:05:26;;;;;;;1.00;0.90;;;;;;;;;;4989027;28;20164;-53
2022/03/14 07:07:52;;;;;;;1.30;0.90;;;;;;;;;;4987894;28;20105;-52
2022/03/14 07:10:18;;;;;;;1.05;0.90;;;;;;;;;;4970366;28;20036;-51
2022/03/14 07:12:46;;;;;;;0.93;0.82;;;;;;;;;;4984291;28;20055;-52
2022/03/14 07:15:16;;;;;;;1.05;0.90;;;;;;;;;;4987236;28;20018;-50
2022/03/14 07:17:43;;;;;;;1.05;0.95;;;;;;;;;;4974866;28;20138;-50
2022/03/14 07:20:10;;;;;;;1.67;1.05;;;;;;;;;;4985456;28;20109;-51
2022/03/14 07:22:55;;;;;;;1.83;1.20;;;;;;;;;;4984067;28;20507;-52
2022/03/14 07:25:23;;;;;;;1.95;1.13;;;;;;;;;;4985971;28;20113;-52
2022/03/14 07:27:50;;;;;;;2.13;1.30;;;;;;;;;;4988387;28;20037;-53
2022/03/14 07:30:16;;;;;;;2.35;1.33;;;;;;;;;;4988173;28;20680;-49
2022/03/14 07:32:42;;;;;;;1.63;1.33;;;;;;;;;;5003935;28;20489;-51
2022/03/14 07:35:09;;;;;;;1.10;1.00;;;;;;;;;;4987869;28;20026;-53
2022/03/14 07:37:36;;;;;;;1.77;1.30;;;;;;;;;;4982792;28;20355;-48
2022/03/14 07:40:03;;;;;;;1.38;1.00;;;;;;;;;;4987112;28;20045;-48
2022/03/14 07:42:29;;;;;;;1.52;1.20;;;;;;;;;;4987062;28;20108;-48
2022/03/14 07:44:55;;;;;;;1.67;1.10;;;;;;;;;;4988083;28;20520;-50
2022/03/14 07:47:22;;;;;;;1.15;1.05;;;;;;;;;;4979655;28;20030;-50
2022/03/14 07:49:48;;;;;;;1.00;0.90;;;;;;;;;;4984795;28;20038;-51
2022/03/14 07:52:14;;;;;;;1.23;1.13;;;;;;;;;;4987102;28;20031;-50
2022/03/14 07:54:40;;;;;;;1.00;0.90;;;;;;;;;;4988826;28;20101;-50
2022/03/14 07:57:06;;;;;;;0.82;0.80;;;;;;;;;;4987337;28;20025;-50
2022/03/14 07:59:32;;;;;;;1.20;1.00;;;;;;;;;;4988560;28;20105;-51
2022/03/14 08:02:00;;;;;;;0.82;0.77;;;;;;;;;;4991229;28;20027;-50
2022/03/14 08:04:26;;;;;;;0.80;0.80;;;;;;;;;;4987609;28;20085;-50
2022/03/14 08:06:52;;;;;;;0.80;0.70;;;;;;;;;;4993498;28;20506;-50
2022/03/14 08:09:21;;;;;;;1.17;0.90;;;;;;;;;;4987762;28;20092;-51
2022/03/14 08:11:47;;;;;;;1.10;0.90;;;;;;;;;;4986694;28;20034;-47
2022/03/14 08:14:13;;;;;;;0.80;0.80;;;;;;;;;;4986621;28;20018;-46
2022/03/14 08:16:39;;;;;;;1.55;1.13;;;;;;;;;;4986032;28;20033;-51
2022/03/14 08:19:06;;;;;;;0.85;0.80;;;;;;;;;;4984833;28;20028;-49
2022/03/14 08:21:33;;;;;;;0.68;0.68;;;;;;;;;;4981814;28;20148;-51
2022/03/14 08:23:59;;;;;;;1.02;0.98;;;;;;;;;;4989548;28;20022;-47
2022/03/14 08:26:26;;;;;;;0.90;0.80;;;;;;;;;;4984293;28;20461;-47
2022/03/14 08:28:52;;;;;;;0.85;0.77;;;;;;;;;;4986131;28;20065;-46
2022/03/14 08:31:21;;;;;;;0.80;0.80;;;;;;;;;;4988736;28;20018;-49
2022/03/14 08:33:47;;;;;;;0.70;0.70;;;;;;;;;;4986645;28;20034;-48
2022/03/14 08:36:14;;;;;;;0.88;0.80;;;;;;;;;;4983687;28;20030;-51
2022/03/14 08:38:40;;;;;;;0.85;0.85;;;;;;;;;;4980717;28;20037;-51
2022/03/14 08:41:08;;;;;;;0.80;0.80;;;;;;;;;;4975040;28;20145;-50
2022/03/14 08:43:34;;;;;;;0.93;0.90;;;;;;;;;;4984943;28;20487;-51
2022/03/14 08:46:00;;;;;;;0.60;0.60;;;;;;;;;;4987502;28;20092;-50
2022/03/14 08:48:27;;;;;;;0.80;0.80;;;;;;;;;;4987861;28;20508;-50
2022/03/14 08:50:53;;;;;;;0.88;0.85;;;;;;;;;;4988083;28;20027;-51
2022/03/14 08:53:19;;;;;;;0.63;0.63;;;;;;;;;;4987947;28;20497;-52
2022/03/14 08:55:45;;;;;;;0.60;0.60;;;;;;;;;;4988410;28;20497;-51
2022/03/14 08:58:11;;;;;;;0.90;0.90;;;;;;;;;;4987694;28;20037;-48
2022/03/14 09:00:38;;;;;;;0.70;0.70;;;;;;;;;;4987776;28;20030;-50
2022/03/14 09:03:04;;;;;;;0.80;0.80;;;;;;;;;;4987913;28;20045;-50
2022/03/14 09:05:30;;;;;;;1.10;0.82;;;;;;;;;;4985968;28;20049;-49
2022/03/14 09:07:57;;;;;;;0.95;0.90;;;;;;;;;;4987825;28;20030;-50
2022/03/14 09:10:23;;;;;;;0.82;0.80;;;;;;;;;;4987432;28;20031;-49
2022/03/14 09:12:49;;;;;;;0.80;0.70;;;;;;;;;;4987670;28;20409;-47
2022/03/14 09:15:16;;;;;;;0.70;0.70;;;;;;;;;;4986431;28;20095;-51
2022/03/14 09:17:49;;;;;;;1.05;0.80;;;;;;;;;;4989468;28;20101;-47
2022/03/14 09:20:15;;;;;;;1.40;1.23;;;;;;;;;;4984951;28;20030;-49
2022/03/14 09:22:44;;;;;;;1.10;1.00;;;;;;;;;;4987017;28;20027;-50
2022/03/14 09:25:10;;;;;;;1.10;1.00;;;;;;;;;;4985695;28;20018;-52
2022/03/14 09:27:37;;;;;;;1.27;1.10;;;;;;;;;;4987278;28;20096;-50
2022/03/14 09:30:04;;;;;;;1.08;0.98;;;;;;;;;;4983595;28;20034;-51
2022/03/14 09:32:30;;;;;;;1.23;0.98;;;;;;;;;;4982877;28;20493;-53
2022/03/14 09:34:59;;;;;;;1.10;1.00;;;;;;;;;;4984788;28;20165;-48
2022/03/14 09:37:25;;;;;;;0.95;0.90;;;;;;;;;;4977743;28;20035;-48
2022/03/14 09:39:51;;;;;;;0.90;0.90;;;;;;;;;;5000163;28;20032;-49
2022/03/14 09:42:18;;;;;;;0.80;0.80;;;;;;;;;;4989361;28;20449;-48
2022/03/14 09:44:46;;;;;;;1.25;1.10;;;;;;;;;;4991197;28;20030;-50
2022/03/14 09:47:13;;;;;;;1.15;0.90;;;;;;;;;;4990714;28;20108;-51
2022/03/14 09:49:40;;;;;;;1.23;1.00;;;;;;;;;;4990421;28;20053;-50
2022/03/14 09:52:06;;;;;;;0.80;0.80;;;;;;;;;;5005380;28;20033;-50
2022/03/14 09:54:32;;;;;;;1.35;1.10;;;;;;;;;;5009629;28;20048;-49
2022/03/14 09:57:01;;;;;;;0.70;0.70;;;;;;;;;;5009270;28;20104;-49
2022/03/14 09:59:27;;;;;;;0.70;0.70;;;;;;;;;;5008755;28;20026;-47
2022/03/14 10:01:54;;;;;;;1.02;0.80;;;;;;;;;;5008971;28;20036;-51
2022/03/14 10:04:22;;;;;;;0.68;0.60;;;;;;;;;;5006061;28;20056;-47
2022/03/14 10:06:49;;;;;;;0.75;0.75;;;;;;;;;;4987373;28;20042;-48
2022/03/14 10:09:16;;;;;;;0.90;0.90;;;;;;;;;;4986090;28;20018;-49
2022/03/14 10:11:42;;;;;;;1.13;0.90;;;;;;;;;;4990573;28;20065;-50
2022/03/14 10:14:11;;;;;;;1.08;1.00;;;;;;;;;;4989757;28;20437;-46
2022/03/14 10:16:37;;;;;;;0.70;0.70;;;;;;;;;;4989819;28;20026;-47
2022/03/14 10:19:09;;;;;;;0.85;0.80;;;;;;;;;;4989846;28;20076;-50
2022/03/14 10:21:39;;;;;;;1.02;0.93;;;;;;;;;;4989725;28;20506;-50
2022/03/14 10:24:05;;;;;;;0.70;0.70;;;;;;;;;;4989834;28;20038;-49
2022/03/14 10:26:33;;;;;;;0.88;0.82;;;;;;;;;;4987402;28;20030;-50
2022/03/14 10:29:00;;;;;;;0.75;0.75;;;;;;;;;;4989289;28;20026;-49
2022/03/14 10:31:30;;;;;;;1.23;1.00;;;;;;;;;;4985800;28;20556;-49
2022/03/14 10:34:03;;;;;;;0.70;0.70;;;;;;;;;;4987656;28;20060;-48
2022/03/14 10:36:43;;;;;;;1.02;0.93;;;;;;;;;;4989276;28;20027;-50
2022/03/14 10:39:12;;;;;;;1.20;1.00;;;;;;;;;;4987981;28;20018;-49
2022/03/14 10:41:39;;;;;;;0.80;0.80;;;;;;;;;;4987177;28;20030;-49
2022/03/14 10:44:05;;;;;;;0.90;0.80;;;;;;;;;;4988524;28;20030;-50
2022/03/14 10:46:31;;;;;;;1.23;1.00;;;;;;;;;;4988851;28;20088;-49
2022/03/14 10:48:59;;;;;;;1.30;1.20;;;;;;;;;;4978433;28;20038;-51
2022/03/14 10:51:25;;;;;;;1.13;1.02;;;;;;;;;;4998453;28;20041;-51
2022/03/14 10:53:51;;;;;;;1.25;1.10;;;;;;;;;;5001859;28;20015;-51
2022/03/14 10:56:17;;;;;;;0.90;0.90;;;;;;;;;;4994542;28;20035;-51
2022/03/14 10:58:43;;;;;;;1.20;1.10;;;;;;;;;;4989242;28;20037;-50
2022/03/14 11:01:10;;;;;;;0.80;0.80;;;;;;;;;;4989115;28;20034;-51
2022/03/14 11:03:45;;;;;;;0.80;0.80;;;;;;;;;;4975756;28;20035;-51
2022/03/14 11:06:11;;;;;;;;;;;;;;;;;;4970269;28;20118;-51
2022/03/14 11:08:37;;;;;;;1.40;1.30;;;;;;;;;;4969215;28;20001;-48
2022/03/14 11:11:11;;;;;;;1.80;1.10;;;;;;;;;;4969142;28;20034;-49
2022/03/14 11:13:40;;;;;;;1.10;1.00;;;;;;;;;;4969344;28;20027;-47
2022/03/14 11:16:09;;;;;;;0.98;0.90;;;;;;;;;;4985020;28;20136;-50
2022/03/14 11:18:37;;;;;;;1.08;0.98;;;;;;;;;;4988753;28;20038;-51
2022/03/14 11:21:04;;;;;;;1.10;1.00;;;;;;;;;;4988806;28;20038;-49
2022/03/14 11:23:31;;;;;;;1.02;0.70;;;;;;;;;;4988573;28;20027;-50
2022/03/14 11:25:58;;;;;;;0.93;0.90;;;;;;;;;;4988690;28;20394;-48
2022/03/14 11:28:25;;;;;;;0.95;0.90;;;;;;;;;;4986366;28;20157;-50
2022/03/14 11:30:58;;;;;;;0.85;0.80;;;;;;;;;;4985555;28;20501;-51
2022/03/14 11:33:25;;;;;;;0.70;0.70;;;;;;;;;;4981619;28;20117;-50
2022/03/14 11:35:51;;;;;;;0.80;0.70;;;;;;;;;;4987791;28;20019;-48
2022/03/14 11:38:18;;;;;;;0.73;0.70;;;;;;;;;;4984087;28;20061;-50
2022/03/14 11:40:45;;;;;;;0.73;0.60;;;;;;;;;;4974629;28;20030;-49
2022/03/14 11:43:11;;;;;;;0.70;0.70;;;;;;;;;;4986200;28;20034;-49
2022/03/14 11:45:37;;;;;;;0.60;0.60;;;;;;;;;;4988347;28;20363;-50
2022/03/14 11:48:05;;;;;;;0.60;0.60;;;;;;;;;;4986336;28;20042;-50
2022/03/14 11:50:43;;;;;;;1.00;0.85;;;;;;;;;;4978288;28;20090;-50
2022/03/14 11:53:09;;;;;;;0.63;0.63;;;;;;;;;;4968601;28;20023;-51
2022/03/14 11:55:49;;;;;;;0.73;0.73;;;;;;;;;;4968087;28;20027;-51
2022/03/14 11:58:28;;;;;;;0.80;0.80;;;;;;;;;;4987864;28;20153;-51
2022/03/14 12:00:55;;;;;;;0.77;0.70;;;;;;;;;;4987677;28;20497;-51
2022/03/14 12:03:37;;;;;;;0.80;0.70;;;;;;;;;;4984430;28;20031;-51
2022/03/14 12:06:03;;;;;;;0.85;0.80;;;;;;;;;;4967725;28;20073;-51
2022/03/14 12:08:33;;;;;;;0.88;0.88;;;;;;;;;;4981877;28;20034;-51
2022/03/14 12:11:17;;;;;;;0.80;0.77;;;;;;;;;;4984062;28;20167;-51
2022/03/14 12:13:44;;;;;;;0.93;0.73;;;;;;;;;;4986780;28;20057;-49
2022/03/14 12:16:29;;;;;;;0.63;0.63;;;;;;;;;;4987662;28;20026;-49
2022/03/14 12:18:58;;;;;;;0.60;0.60;;;;;;;;;;4985809;28;20073;-49
2022/03/14 12:21:43;;;;;;;0.60;0.60;;;;;;;;;;4987493;28;20062;-51
2022/03/14 12:24:17;;;;;;;0.73;0.70;;;;;;;;;;4979338;28;20033;-51
2022/03/14 12:26:45;;;;;;;0.90;0.90;;;;;;;;;;4972965;28;20030;-48
2022/03/14 12:29:29;;;;;;;1.20;1.10;;;;;;;;;;4973008;28;20033;-52
2022/03/14 12:32:14;;;;;;;1.77;1.60;;;;;;;;;;4990603;28;20129;-50
2022/03/14 12:34:40;;;;;;;1.42;1.30;;;;;;;;;;4984617;28;20664;-50
2022/03/14 12:37:23;;;;;;;1.20;1.10;;;;;;;;;;4985067;28;20572;-47
2022/03/14 12:39:49;;;;;;;0.77;0.77;;;;;;;;;;4967765;28;20058;-50
2022/03/14 12:42:23;;;;;;;1.33;0.90;;;;;;;;;;4976488;28;20026;-50
2022/03/14 12:45:09;;;;;;;1.10;0.93;;;;;;;;;;4976712;28;20229;-49
2022/03/14 12:47:49;;;;;;;3.33;1.90;;;;;;;;;;4986914;28;20022;-49
2022/03/14 12:50:35;;;;;;;1.80;1.52;;;;;;;;;;4968020;28;20038;-50
2022/03/14 12:53:01;;;;;;;3.03;1.95;;;;;;;;;;4967510;28;20110;-48
2022/03/14 12:55:27;;;;;;;3.03;2.00;;;;;;;;;;4999315;28;20026;-48
2022/03/14 12:57:54;;;;;;;3.25;2.50;;;;;;;;;;4988172;28;20061;-49
2022/03/14 13:00:20;;;;;;;4.05;3.42;;;;;;;;;;4988936;28;20038;-48
2022/03/14 13:02:47;;;;;;;4.07;3.15;;;;;;;;;;4985912;28;20076;-51
2022/03/14 13:05:18;;;;;;;3.58;3.13;;;;;;;;;;4983510;28;20034;-52
2022/03/14 13:07:44;;;;;;;4.85;2.95;;;;;;;;;;4985940;28;20038;-52
2022/03/14 13:10:11;;;;;;;4.25;3.15;;;;;;;;;;4985326;28;20077;-49
2022/03/14 13:12:37;;;;;;;6.65;4.25;;;;;;;;;;4986813;28;20033;-50
2022/03/14 13:15:07;;;;;;;5.47;3.72;;;;;;;;;;4984745;28;20084;-48
2022/03/14 13:17:33;;;;;;;4.22;3.28;;;;;;;;;;4984747;28;20031;-51
2022/03/14 13:19:59;;;;;;;3.10;2.80;;;;;;;;;;4986869;28;20552;-50
2022/03/14 13:22:26;;;;;;;4.28;2.85;;;;;;;;;;4986048;28;20525;-49
2022/03/14 13:24:53;;;;;;;2.65;2.33;;;;;;;;;;4986580;28;20026;-49
2022/03/14 13:27:26;;;;;;;2.85;2.13;;;;;;;;;;4985540;28;20788;-48
2022/03/14 13:29:53;;;;;;;2.67;2.00;;;;;;;;;;4986589;28;20037;-51
2022/03/14 13:32:20;;;;;;;2.25;1.90;;;;;;;;;;4986639;28;20097;-46
2022/03/14 13:35:05;;;;;;;2.33;1.92;;;;;;;;;;4986910;28;20064;-49
2022/03/14 13:37:31;;;;;;;3.83;3.10;;;;;;;;;;4980990;28;20066;-48
2022/03/14 13:39:57;;;;;;;4.28;2.70;;;;;;;;;;4967193;28;20035;-49
2022/03/14 13:42:23;;;;;;;3.15;2.58;;;;;;;;;;4967301;28;20074;-51
2022/03/14 13:44:50;;;;;;;3.00;2.65;;;;;;;;;;4976213;28;20030;-51
2022/03/14 13:47:25;;;;;;;5.45;3.22;;;;;;;;;;4987130;28;20355;-50
2022/03/14 13:50:01;;;;;;;4.40;3.20;;;;;;;;;;4986320;28;20030;-51
2022/03/14 13:52:27;;;;;;;5.32;3.30;;;;;;;;;;4986417;28;20034;-51
2022/03/14 13:54:53;;;;;;;3.70;2.75;;;;;;;;;;4986557;28;20027;-50
2022/03/14 13:57:22;;;;;;;4.28;2.97;;;;;;;;;;4986341;28;20951;-51
2022/03/14 13:59:51;;;;;;;4.38;2.70;;;;;;;;;;4986451;28;20026;-50
2022/03/14 14:02:34;;;;;;;3.72;2.90;;;;;;;;;;4986097;28;20037;-51